createdAt,value
2023-01-26T00:04:25.188Z,99163.75
2023-01-26T00:09:47.040Z,99158.63
2023-01-26T00:15:08.884Z,99150.00
2023-01-26T00:20:30.642Z,99140.84
2023-01-26T00:25:52.471Z,99126.19
2023-01-26T00:31:19.495Z,99117.38
2023-01-26T00:36:41.303Z,99109.78
2023-01-26T00:42:13.801Z,99108.09
2023-01-26T00:47:35.521Z,99096.00
2023-01-26T00:52:57.319Z,99094.28
2023-01-26T00:58:19.032Z,99087.28
2023-01-26T01:03:40.778Z,99091.03
2023-01-26T01:09:03.114Z,99081.53
2023-01-26T01:14:25.111Z,99086.19
2023-01-26T01:19:46.812Z,99087.75
2023-01-26T01:25:08.949Z,99092.94
2023-01-26T01:30:30.685Z,99079.19
2023-01-26T01:36:03.460Z,99073.28
2023-01-26T01:41:25.247Z,99076.09
2023-01-26T01:47:02.322Z,99077.09
2023-01-26T01:52:31.720Z,99063.94
2023-01-26T01:57:58.757Z,99059.00
2023-01-26T02:03:21.283Z,99064.72
2023-01-26T02:08:42.968Z,99056.78
2023-01-26T02:14:08.779Z,99046.78
2023-01-26T02:19:46.060Z,99046.88
2023-01-26T02:25:19.233Z,99045.66
2023-01-26T02:30:40.975Z,99041.56
2023-01-26T02:36:03.583Z,99042.47
2023-01-26T02:41:44.655Z,99036.53
2023-01-26T02:47:18.833Z,99031.63
2023-01-26T02:52:40.644Z,99029.47
2023-01-26T02:58:04.553Z,99025.84
2023-01-26T03:03:41.684Z,99020.84
2023-01-26T03:09:03.643Z,99019.91
2023-01-26T03:14:25.344Z,99014.78
2023-01-26T03:20:05.824Z,99015.69
2023-01-26T03:25:45.933Z,98996.44
2023-01-26T03:31:07.760Z,98991.09
2023-01-26T03:36:29.466Z,98979.13
2023-01-26T03:42:09.919Z,98979.28
2023-01-26T03:47:51.782Z,98981.00
2023-01-26T03:53:42.818Z,98982.66
2023-01-26T03:59:12.277Z,98988.09
2023-01-26T04:04:52.971Z,98980.19
2023-01-26T04:10:15.037Z,98994.28
2023-01-26T04:15:56.149Z,98989.28
2023-01-26T04:21:26.701Z,98978.03
2023-01-26T04:26:48.752Z,98991.72
2023-01-26T04:32:10.515Z,98985.13
2023-01-26T04:37:33.224Z,98980.88
2023-01-26T04:42:54.930Z,98969.84
2023-01-26T04:48:16.668Z,98971.47
2023-01-26T04:53:38.441Z,98962.22
2023-01-26T04:59:02.792Z,98962.38
2023-01-26T05:04:24.589Z,98963.72
2023-01-26T05:09:46.403Z,98962.44
2023-01-26T05:15:08.421Z,98964.41
2023-01-26T05:20:30.160Z,98965.31
2023-01-26T05:25:51.936Z,98967.75
2023-01-26T05:31:13.619Z,98969.34
2023-01-26T05:36:35.329Z,98973.69
2023-01-26T05:41:57.165Z,98966.94
2023-01-26T05:47:19.785Z,98975.75
2023-01-26T05:52:42.886Z,98979.09
2023-01-26T05:58:04.586Z,98979.75
2023-01-26T06:03:26.329Z,98980.75
2023-01-26T06:08:48.023Z,98984.81
2023-01-26T06:14:09.875Z,98978.13
2023-01-26T06:19:31.683Z,98979.97
2023-01-26T06:24:53.382Z,98987.69
2023-01-26T06:30:15.834Z,98993.81
2023-01-26T06:35:37.555Z,98989.13
2023-01-26T06:41:03.075Z,98996.31
2023-01-26T06:46:24.935Z,98984.47
2023-01-26T06:51:50.380Z,98988.63
2023-01-26T06:57:12.152Z,98983.56
2023-01-26T07:02:34.054Z,98981.19
2023-01-26T07:07:55.867Z,98989.28
2023-01-26T07:13:17.627Z,98994.72
2023-01-26T07:18:39.381Z,98996.66
2023-01-26T07:24:01.188Z,99007.78
2023-01-26T07:29:22.991Z,99002.56
2023-01-26T07:34:44.699Z,99006.84
2023-01-26T07:40:07.288Z,99014.44
2023-01-26T07:45:29.039Z,99003.44
2023-01-26T07:50:51.334Z,99004.13
2023-01-26T07:56:16.548Z,99006.00
2023-01-26T08:01:39.433Z,99006.97
2023-01-26T08:07:01.409Z,99013.66
2023-01-26T08:12:23.216Z,99010.31
2023-01-26T08:17:44.942Z,99012.75
2023-01-26T08:23:06.689Z,99003.16
2023-01-26T08:28:28.872Z,98998.81
2023-01-26T08:33:52.015Z,99001.38
2023-01-26T08:39:13.798Z,98997.78
2023-01-26T08:44:35.542Z,98998.75
2023-01-26T08:49:57.279Z,98996.97
2023-01-26T08:55:19.058Z,98993.69
2023-01-26T09:00:40.804Z,98989.50
2023-01-26T09:06:04.394Z,98991.16
2023-01-26T09:11:26.210Z,98984.25
2023-01-26T09:16:48.219Z,98990.88
2023-01-26T09:22:10.019Z,98987.47
2023-01-26T09:27:31.852Z,98990.09
2023-01-26T09:32:58.643Z,98995.75
2023-01-26T09:38:20.366Z,99004.53
2023-01-26T09:43:50.489Z,99013.31
2023-01-26T09:49:21.555Z,99007.19
2023-01-26T09:54:49.432Z,99011.38
2023-01-26T10:00:25.877Z,99013.94
2023-01-26T10:06:07.494Z,98997.78
2023-01-26T10:11:38.108Z,99003.97
2023-01-26T10:17:02.814Z,99005.53
2023-01-26T10:22:33.937Z,99004.03
2023-01-26T10:27:55.768Z,98999.38
2023-01-26T10:33:54.497Z,98996.88
2023-01-26T10:39:17.802Z,99002.69
2023-01-26T10:44:40.209Z,99008.94
2023-01-26T10:50:23.161Z,99003.69
2023-01-26T10:55:58.988Z,98994.38
2023-01-26T11:01:28.198Z,98998.56
2023-01-26T11:06:49.967Z,98989.00
2023-01-26T11:12:19.162Z,98985.75
2023-01-26T11:17:49.255Z,98984.28
2023-01-26T11:23:24.608Z,98980.50
2023-01-26T11:29:07.881Z,98978.19
2023-01-26T11:34:41.400Z,98970.56
2023-01-26T11:40:23.424Z,98964.56
2023-01-26T11:45:50.919Z,98961.44
2023-01-26T11:51:49.520Z,98959.66
2023-01-26T11:57:37.327Z,98947.69
2023-01-26T12:03:05.210Z,98940.44
2023-01-26T12:08:39.376Z,98938.03
2023-01-26T12:14:25.623Z,98934.47
2023-01-26T12:20:11.441Z,98922.47
2023-01-26T12:25:33.564Z,98923.41
2023-01-26T12:31:14.311Z,98919.59
2023-01-26T12:36:46.662Z,98914.00
2023-01-26T12:42:29.754Z,98899.16
2023-01-26T12:47:55.796Z,98893.38
2023-01-26T12:53:47.990Z,98892.25
2023-01-26T12:59:38.909Z,98884.03
2023-01-26T13:05:00.128Z,98894.81
2023-01-26T13:10:27.745Z,98888.97
2023-01-26T13:16:15.588Z,98890.53
2023-01-26T13:21:40.166Z,98889.06
2023-01-26T13:27:01.931Z,98880.50
2023-01-26T13:32:23.670Z,98876.03
2023-01-26T13:37:53.258Z,98872.03
2023-01-26T13:43:36.307Z,98880.44
2023-01-26T13:48:58.069Z,98878.88
2023-01-26T13:54:20.959Z,98883.59
2023-01-26T13:59:54.729Z,98876.31
2023-01-26T14:05:22.497Z,98881.53
2023-01-26T14:10:44.287Z,98884.09
2023-01-26T14:16:07.538Z,98882.25
2023-01-26T14:21:29.384Z,98888.22
2023-01-26T14:26:51.157Z,98891.84
2023-01-26T14:32:16.448Z,98902.69
2023-01-26T14:37:38.188Z,98900.38
2023-01-26T14:43:00.214Z,98899.59
2023-01-26T14:48:34.729Z,98901.88
2023-01-26T14:54:18.878Z,98903.25
2023-01-26T14:59:41.167Z,98910.44
2023-01-26T15:05:14.264Z,98914.44
2023-01-26T15:10:52.732Z,98919.97
2023-01-26T15:16:20.109Z,98920.25
2023-01-26T15:21:43.699Z,98910.81
2023-01-26T15:27:06.734Z,98920.81
2023-01-26T15:32:37.513Z,98919.16
2023-01-26T15:38:11.612Z,98935.50
2023-01-26T15:43:33.304Z,98921.06
2023-01-26T15:48:55.891Z,98925.34
2023-01-26T15:54:17.608Z,98921.72
2023-01-26T15:59:40.180Z,98926.94
2023-01-26T16:05:01.872Z,98918.16
2023-01-26T16:10:23.623Z,98925.91
2023-01-26T16:15:51.317Z,98921.88
2023-01-26T16:21:20.162Z,98925.25
2023-01-26T16:26:41.984Z,98931.09
2023-01-26T16:32:16.126Z,98927.16
2023-01-26T16:37:37.926Z,98922.78
2023-01-26T16:43:01.467Z,98929.50
2023-01-26T16:48:23.862Z,98932.03
2023-01-26T16:53:46.600Z,98919.22
2023-01-26T16:59:08.298Z,98926.66
2023-01-26T17:04:30.034Z,98931.88
2023-01-26T17:09:51.801Z,98933.69
2023-01-26T17:15:14.034Z,98924.44
2023-01-26T17:20:35.955Z,98929.31
2023-01-26T17:25:59.375Z,98932.13
2023-01-26T17:31:23.365Z,98936.56
2023-01-26T17:36:46.126Z,98926.03
2023-01-26T17:42:07.938Z,98924.66
2023-01-26T17:47:33.509Z,98939.22
2023-01-26T17:52:55.300Z,98933.38
2023-01-26T17:58:17.040Z,98933.28
2023-01-26T18:03:42.845Z,98934.81
2023-01-26T18:09:05.807Z,98933.91
2023-01-26T18:14:27.566Z,98932.22
2023-01-26T18:19:49.308Z,98936.91
2023-01-26T18:25:11.717Z,98949.84
2023-01-26T18:30:33.746Z,98950.09
2023-01-26T18:36:06.231Z,98944.81
2023-01-26T18:41:30.575Z,98942.94
2023-01-26T18:46:52.376Z,98937.75
2023-01-26T18:52:14.074Z,98948.03
2023-01-26T18:57:35.884Z,98951.63
2023-01-26T19:02:57.595Z,98948.94
2023-01-26T19:08:22.605Z,98952.47
2023-01-26T19:13:46.469Z,98948.94
2023-01-26T19:19:10.867Z,98943.97
2023-01-26T19:24:32.677Z,98942.41
2023-01-26T19:29:54.497Z,98934.72
2023-01-26T19:35:18.198Z,98944.81
2023-01-26T19:40:40.089Z,98947.41
2023-01-26T19:46:02.647Z,98940.63
2023-01-26T19:51:26.636Z,98940.63
2023-01-26T19:56:48.389Z,98944.06
2023-01-26T20:02:10.422Z,98936.50
2023-01-26T20:07:32.242Z,98942.56
2023-01-26T20:12:54.120Z,98937.38
2023-01-26T20:18:15.883Z,98933.00
2023-01-26T20:23:41.277Z,98945.09
2023-01-26T20:29:11.976Z,98937.25
2023-01-26T20:34:33.797Z,98942.47
2023-01-26T20:39:55.673Z,98946.19
2023-01-26T20:45:17.984Z,98943.50
2023-01-26T20:50:40.717Z,98943.38
2023-01-26T20:56:02.521Z,98946.84
2023-01-26T21:01:25.387Z,98941.81
2023-01-26T21:06:50.138Z,98949.47
2023-01-26T21:12:12.384Z,98950.50
2023-01-26T21:17:37.128Z,98944.38
2023-01-26T21:22:59.616Z,98936.00
2023-01-26T21:28:21.460Z,98931.63
2023-01-26T21:33:45.906Z,98924.56
2023-01-26T21:39:10.853Z,98923.81
2023-01-26T21:44:33.219Z,98919.50
2023-01-26T21:49:56.136Z,98916.91
2023-01-26T21:55:20.151Z,98922.00
2023-01-26T22:00:43.145Z,98918.69
2023-01-26T22:06:05.554Z,98923.75
2023-01-26T22:11:27.810Z,98922.00
2023-01-26T22:16:50.079Z,98923.88
2023-01-26T22:22:12.603Z,98922.06
2023-01-26T22:27:34.382Z,98922.19
2023-01-26T22:32:56.087Z,98915.13
2023-01-26T22:38:18.225Z,98919.59
2023-01-26T22:43:39.953Z,98917.66
2023-01-26T22:49:04.443Z,98916.81
2023-01-26T22:54:27.074Z,98904.06
2023-01-26T22:59:49.322Z,98893.03
2023-01-26T23:05:11.127Z,98900.69
2023-01-26T23:10:32.973Z,98892.25
2023-01-26T23:15:54.735Z,98887.88
2023-01-26T23:21:16.500Z,98883.69
2023-01-26T23:26:38.458Z,98882.50
2023-01-26T23:32:00.237Z,98876.53
2023-01-26T23:37:22.015Z,98875.59
2023-01-26T23:43:00.250Z,98878.13
2023-01-26T23:48:26.103Z,98877.84
2023-01-26T23:53:47.865Z,98870.34
2023-01-26T23:59:09.571Z,98866.09
